sensor_id;sensor_type;location;lat;lon;timestamp;pressure;altitude;pressure_sealevel;temperature
28905;BMP280;60848;53.884;11.446;2023-03-01T00:01:04;102927.13;;;1.61
28905;BMP280;60848;53.884;11.446;2023-03-01T00:03:33;102920.72;;;1.63
28905;BMP280;60848;53.884;11.446;2023-03-01T00:06:03;102920.75;;;1.68
28905;BMP280;60848;53.884;11.446;2023-03-01T00:08:32;102916.94;;;1.71
28905;BMP280;60848;53.884;11.446;2023-03-01T00:11:02;102921.84;;;1.72
28905;BMP280;60848;53.884;11.446;2023-03-01T00:13:30;102914.88;;;1.73
28905;BMP280;60848;53.884;11.446;2023-03-01T00:16:01;102921.38;;;1.75
28905;BMP280;60848;53.884;11.446;2023-03-01T00:18:29;102920.34;;;1.76
28905;BMP280;60848;53.884;11.446;2023-03-01T00:20:58;102918.56;;;1.77
28905;BMP280;60848;53.884;11.446;2023-03-01T00:23:26;102920.34;;;1.76
28905;BMP280;60848;53.884;11.446;2023-03-01T00:25:55;102917.75;;;1.76
28905;BMP280;60848;53.884;11.446;2023-03-01T00:28:23;102914.44;;;1.76
28905;BMP280;60848;53.884;11.446;2023-03-01T00:30:51;102913.09;;;1.73
28905;BMP280;60848;53.884;11.446;2023-03-01T00:33:21;102911.78;;;1.71
28905;BMP280;60848;53.884;11.446;2023-03-01T00:35:49;102905.06;;;1.70
28905;BMP280;60848;53.884;11.446;2023-03-01T00:38:17;102902.69;;;1.68
28905;BMP280;60848;53.884;11.446;2023-03-01T00:40:46;102903.19;;;1.65
28905;BMP280;60848;53.884;11.446;2023-03-01T00:43:14;102896.16;;;1.61
28905;BMP280;60848;53.884;11.446;2023-03-01T00:45:42;102897.97;;;1.60
28905;BMP280;60848;53.884;11.446;2023-03-01T00:48:11;102894.09;;;1.58
28905;BMP280;60848;53.884;11.446;2023-03-01T00:50:40;102890.47;;;1.59
28905;BMP280;60848;53.884;11.446;2023-03-01T00:53:08;102887.84;;;1.54
28905;BMP280;60848;53.884;11.446;2023-03-01T00:55:37;102892.13;;;1.48
28905;BMP280;60848;53.884;11.446;2023-03-01T00:58:05;102891.06;;;1.44
28905;BMP280;60848;53.884;11.446;2023-03-01T01:00:33;102891.78;;;1.40
28905;BMP280;60848;53.884;11.446;2023-03-01T01:03:01;102887.34;;;1.35
28905;BMP280;60848;53.884;11.446;2023-03-01T01:05:30;102891.44;;;1.31
28905;BMP280;60848;53.884;11.446;2023-03-01T01:07:59;102893.13;;;1.26
28905;BMP280;60848;53.884;11.446;2023-03-01T01:10:27;102889.72;;;1.20
28905;BMP280;60848;53.884;11.446;2023-03-01T01:12:56;102890.66;;;1.14
28905;BMP280;60848;53.884;11.446;2023-03-01T01:15:25;102890.34;;;1.11
28905;BMP280;60848;53.884;11.446;2023-03-01T01:17:53;102889.31;;;1.12
28905;BMP280;60848;53.884;11.446;2023-03-01T01:20:21;102889.13;;;1.13
28905;BMP280;60848;53.884;11.446;2023-03-01T01:22:49;102886.28;;;1.15
28905;BMP280;60848;53.884;11.446;2023-03-01T01:25:19;102888.63;;;1.16
28905;BMP280;60848;53.884;11.446;2023-03-01T01:27:48;102878.81;;;1.13
28905;BMP280;60848;53.884;11.446;2023-03-01T01:30:16;102879.03;;;1.12
28905;BMP280;60848;53.884;11.446;2023-03-01T01:32:44;102879.25;;;1.10
28905;BMP280;60848;53.884;11.446;2023-03-01T01:35:13;102880.75;;;1.06
28905;BMP280;60848;53.884;11.446;2023-03-01T01:37:41;102871.94;;;1.02
28905;BMP280;60848;53.884;11.446;2023-03-01T01:40:10;102873.19;;;1.00
28905;BMP280;60848;53.884;11.446;2023-03-01T01:42:40;102859.22;;;0.96
28905;BMP280;60848;53.884;11.446;2023-03-01T01:45:32;102850.72;;;0.95
28905;BMP280;60848;53.884;11.446;2023-03-01T01:48:03;102840.63;;;0.94
28905;BMP280;60848;53.884;11.446;2023-03-01T01:50:32;102831.91;;;0.95
28905;BMP280;60848;53.884;11.446;2023-03-01T01:53:06;102840.19;;;0.97
28905;BMP280;60848;53.884;11.446;2023-03-01T01:55:37;102826.25;;;0.98
28905;BMP280;60848;53.884;11.446;2023-03-01T01:58:11;102813.63;;;0.96
28905;BMP280;60848;53.884;11.446;2023-03-01T02:00:41;102820.75;;;0.89
28905;BMP280;60848;53.884;11.446;2023-03-01T02:03:10;102821.44;;;0.84
28905;BMP280;60848;53.884;11.446;2023-03-01T02:05:43;102823.63;;;0.76
28905;BMP280;60848;53.884;11.446;2023-03-01T02:08:23;102810.91;;;0.69
28905;BMP280;60848;53.884;11.446;2023-03-01T02:10:51;102811.06;;;0.63
28905;BMP280;60848;53.884;11.446;2023-03-01T02:13:22;102809.78;;;0.60
28905;BMP280;60848;53.884;11.446;2023-03-01T02:15:50;102805.91;;;0.63
28905;BMP280;60848;53.884;11.446;2023-03-01T02:18:20;102805.47;;;0.66
28905;BMP280;60848;53.884;11.446;2023-03-01T02:20:55;102803.19;;;0.69
28905;BMP280;60848;53.884;11.446;2023-03-01T02:23:27;102803.28;;;0.74
28905;BMP280;60848;53.884;11.446;2023-03-01T02:25:58;102804.63;;;0.77
28905;BMP280;60848;53.884;11.446;2023-03-01T02:28:33;102797.66;;;0.77
28905;BMP280;60848;53.884;11.446;2023-03-01T02:31:03;102808.28;;;0.81
28905;BMP280;60848;53.884;11.446;2023-03-01T02:33:50;102800.31;;;0.82
28905;BMP280;60848;53.884;11.446;2023-03-01T02:36:20;102804.22;;;0.85
28905;BMP280;60848;53.884;11.446;2023-03-01T02:38:51;102800.59;;;0.86
28905;BMP280;60848;53.884;11.446;2023-03-01T02:41:20;102803.72;;;0.88
28905;BMP280;60848;53.884;11.446;2023-03-01T02:43:50;102803.50;;;0.89
28905;BMP280;60848;53.884;11.446;2023-03-01T02:46:20;102807.63;;;0.91
28905;BMP280;60848;53.884;11.446;2023-03-01T02:48:50;102806.84;;;0.90
28905;BMP280;60848;53.884;11.446;2023-03-01T02:51:35;102807.41;;;0.92
28905;BMP280;60848;53.884;11.446;2023-03-01T02:54:11;102808.97;;;0.93
28905;BMP280;60848;53.884;11.446;2023-03-01T02:56:41;102802.78;;;0.94
28905;BMP280;60848;53.884;11.446;2023-03-01T02:59:11;102798.66;;;0.93
28905;BMP280;60848;53.884;11.446;2023-03-01T03:01:40;102801.25;;;0.93
28905;BMP280;60848;53.884;11.446;2023-03-01T03:04:10;102799.66;;;0.92
28905;BMP280;60848;53.884;11.446;2023-03-01T03:06:39;102802.47;;;0.91
28905;BMP280;60848;53.884;11.446;2023-03-01T03:09:08;102791.88;;;0.87
28905;BMP280;60848;53.884;11.446;2023-03-01T03:11:36;102785.41;;;0.84
28905;BMP280;60848;53.884;11.446;2023-03-01T03:14:06;102785.84;;;0.81
28905;BMP280;60848;53.884;11.446;2023-03-01T03:16:43;102781.75;;;0.80
28905;BMP280;60848;53.884;11.446;2023-03-01T03:19:12;102781.19;;;0.78
28905;BMP280;60848;53.884;11.446;2023-03-01T03:21:40;102779.06;;;0.75
28905;BMP280;60848;53.884;11.446;2023-03-01T03:24:09;102779.88;;;0.76
28905;BMP280;60848;53.884;11.446;2023-03-01T03:26:37;102778.88;;;0.77
28905;BMP280;60848;53.884;11.446;2023-03-01T03:29:05;102779.63;;;0.77
28905;BMP280;60848;53.884;11.446;2023-03-01T03:31:34;102783.78;;;0.78
28905;BMP280;60848;53.884;11.446;2023-03-01T03:34:04;102783.53;;;0.80
28905;BMP280;60848;53.884;11.446;2023-03-01T03:36:32;102786.88;;;0.80
28905;BMP280;60848;53.884;11.446;2023-03-01T03:39:00;102787.69;;;0.81
28905;BMP280;60848;53.884;11.446;2023-03-01T03:41:28;102789.22;;;0.82
28905;BMP280;60848;53.884;11.446;2023-03-01T03:43:57;102785.31;;;0.79
28905;BMP280;60848;53.884;11.446;2023-03-01T03:46:25;102784.00;;;0.77
28905;BMP280;60848;53.884;11.446;2023-03-01T03:48:53;102788.63;;;0.75
28905;BMP280;60848;53.884;11.446;2023-03-01T03:51:23;102790.88;;;0.71
28905;BMP280;60848;53.884;11.446;2023-03-01T03:53:51;102787.44;;;0.66
28905;BMP280;60848;53.884;11.446;2023-03-01T03:56:19;102780.41;;;0.61
28905;BMP280;60848;53.884;11.446;2023-03-01T03:58:48;102777.78;;;0.56
28905;BMP280;60848;53.884;11.446;2023-03-01T04:01:16;102775.41;;;0.55
28905;BMP280;60848;53.884;11.446;2023-03-01T04:03:44;102773.09;;;0.53
28905;BMP280;60848;53.884;11.446;2023-03-01T04:06:13;102776.44;;;0.54
28905;BMP280;60848;53.884;11.446;2023-03-01T04:08:43;102766.16;;;0.54
28905;BMP280;60848;53.884;11.446;2023-03-01T04:11:11;102767.41;;;0.51
28905;BMP280;60848;53.884;11.446;2023-03-01T04:13:57;102770.91;;;0.45
28905;BMP280;60848;53.884;11.446;2023-03-01T04:16:26;102771.16;;;0.44
28905;BMP280;60848;53.884;11.446;2023-03-01T04:18:55;102767.72;;;0.38
28905;BMP280;60848;53.884;11.446;2023-03-01T04:21:26;102777.69;;;0.35
28905;BMP280;60848;53.884;11.446;2023-03-01T04:23:56;102767.63;;;0.33
28905;BMP280;60848;53.884;11.446;2023-03-01T04:26:24;102761.69;;;0.33
28905;BMP280;60848;53.884;11.446;2023-03-01T04:28:53;102762.47;;;0.33
28905;BMP280;60848;53.884;11.446;2023-03-01T04:31:22;102761.97;;;0.31
28905;BMP280;60848;53.884;11.446;2023-03-01T04:33:51;102764.00;;;0.29
28905;BMP280;60848;53.884;11.446;2023-03-01T04:36:21;102766.81;;;0.28
28905;BMP280;60848;53.884;11.446;2023-03-01T04:38:51;102772.41;;;0.25
28905;BMP280;60848;53.884;11.446;2023-03-01T04:41:21;102767.75;;;0.22
28905;BMP280;60848;53.884;11.446;2023-03-01T04:43:50;102764.63;;;0.20
28905;BMP280;60848;53.884;11.446;2023-03-01T04:46:19;102769.66;;;0.15
28905;BMP280;60848;53.884;11.446;2023-03-01T04:48:48;102775.84;;;0.14
28905;BMP280;60848;53.884;11.446;2023-03-01T04:51:16;102778.09;;;0.10
28905;BMP280;60848;53.884;11.446;2023-03-01T04:53:45;102772.63;;;0.07
28905;BMP280;60848;53.884;11.446;2023-03-01T04:56:14;102770.75;;;0.02
28905;BMP280;60848;53.884;11.446;2023-03-01T04:58:44;102769.19;;;0.01
28905;BMP280;60848;53.884;11.446;2023-03-01T05:01:14;102767.41;;;0.02
28905;BMP280;60848;53.884;11.446;2023-03-01T05:03:44;102766.06;;;-0.01
28905;BMP280;60848;53.884;11.446;2023-03-01T05:06:12;102761.47;;;0.01
28905;BMP280;60848;53.884;11.446;2023-03-01T05:08:41;102762.81;;;0.04
28905;BMP280;60848;53.884;11.446;2023-03-01T05:11:10;102756.19;;;0.08
28905;BMP280;60848;53.884;11.446;2023-03-01T05:13:39;102749.03;;;0.10
28905;BMP280;60848;53.884;11.446;2023-03-01T05:16:09;102748.78;;;0.11
28905;BMP280;60848;53.884;11.446;2023-03-01T05:18:39;102755.56;;;0.17
28905;BMP280;60848;53.884;11.446;2023-03-01T05:21:09;102748.41;;;0.19
28905;BMP280;60848;53.884;11.446;2023-03-01T05:23:38;102748.72;;;0.23
28905;BMP280;60848;53.884;11.446;2023-03-01T05:26:06;102749.03;;;0.26
28905;BMP280;60848;53.884;11.446;2023-03-01T05:28:53;102735.94;;;0.28
28905;BMP280;60848;53.884;11.446;2023-03-01T05:31:27;102731.34;;;0.30
28905;BMP280;60848;53.884;11.446;2023-03-01T05:33:57;102736.47;;;0.30
28905;BMP280;60848;53.884;11.446;2023-03-01T05:36:26;102736.72;;;0.28
28905;BMP280;60848;53.884;11.446;2023-03-01T05:38:54;102741.09;;;0.28
28905;BMP280;60848;53.884;11.446;2023-03-01T05:41:22;102731.78;;;0.27
28905;BMP280;60848;53.884;11.446;2023-03-01T05:43:51;102735.38;;;0.26
28905;BMP280;60848;53.884;11.446;2023-03-01T05:46:19;102744.09;;;0.25
28905;BMP280;60848;53.884;11.446;2023-03-01T05:48:49;102750.03;;;0.25
28905;BMP280;60848;53.884;11.446;2023-03-01T05:51:17;102737.97;;;0.26
28905;BMP280;60848;53.884;11.446;2023-03-01T05:53:45;102747.78;;;0.29
28905;BMP280;60848;53.884;11.446;2023-03-01T05:56:13;102739.06;;;0.30
28905;BMP280;60848;53.884;11.446;2023-03-01T05:58:42;102743.16;;;0.31
28905;BMP280;60848;53.884;11.446;2023-03-01T06:01:11;102740.13;;;0.34
28905;BMP280;60848;53.884;11.446;2023-03-01T06:03:40;102737.31;;;0.35
28905;BMP280;60848;53.884;11.446;2023-03-01T06:06:13;102737.84;;;0.37
28905;BMP280;60848;53.884;11.446;2023-03-01T06:08:41;102740.97;;;0.39
28905;BMP280;60848;53.884;11.446;2023-03-01T06:11:09;102739.97;;;0.40
28905;BMP280;60848;53.884;11.446;2023-03-01T06:13:37;102731.53;;;0.45
28905;BMP280;60848;53.884;11.446;2023-03-01T06:16:08;102738.00;;;0.47
28905;BMP280;60848;53.884;11.446;2023-03-01T06:18:37;102743.44;;;0.51
28905;BMP280;60848;53.884;11.446;2023-03-01T06:21:06;102736.25;;;0.53
28905;BMP280;60848;53.884;11.446;2023-03-01T06:23:36;102735.25;;;0.54
28905;BMP280;60848;53.884;11.446;2023-03-01T06:26:06;102738.84;;;0.53
28905;BMP280;60848;53.884;11.446;2023-03-01T06:28:34;102735.44;;;0.47
28905;BMP280;60848;53.884;11.446;2023-03-01T06:31:03;102733.88;;;0.46
28905;BMP280;60848;53.884;11.446;2023-03-01T06:33:31;102729.50;;;0.47
28905;BMP280;60848;53.884;11.446;2023-03-01T06:35:59;102734.88;;;0.45
28905;BMP280;60848;53.884;11.446;2023-03-01T06:38:28;102729.97;;;0.44
28905;BMP280;60848;53.884;11.446;2023-03-01T06:40:57;102736.66;;;0.45
28905;BMP280;60848;53.884;11.446;2023-03-01T06:43:25;102736.22;;;0.48
28905;BMP280;60848;53.884;11.446;2023-03-01T06:45:54;102742.44;;;0.52
28905;BMP280;60848;53.884;11.446;2023-03-01T06:48:22;102744.88;;;0.58
28905;BMP280;60848;53.884;11.446;2023-03-01T06:50:50;102748.81;;;0.66
28905;BMP280;60848;53.884;11.446;2023-03-01T06:53:19;102755.69;;;0.77
28905;BMP280;60848;53.884;11.446;2023-03-01T06:55:47;102755.09;;;0.92
28905;BMP280;60848;53.884;11.446;2023-03-01T06:58:16;102749.38;;;1.06
28905;BMP280;60848;53.884;11.446;2023-03-01T07:00:45;102747.44;;;1.18
28905;BMP280;60848;53.884;11.446;2023-03-01T07:03:13;102746.81;;;1.33
28905;BMP280;60848;53.884;11.446;2023-03-01T07:05:41;102744.34;;;1.43
28905;BMP280;60848;53.884;11.446;2023-03-01T07:08:11;102751.41;;;1.52
28905;BMP280;60848;53.884;11.446;2023-03-01T07:10:39;102748.94;;;1.62
28905;BMP280;60848;53.884;11.446;2023-03-01T07:13:08;102748.28;;;1.72
28905;BMP280;60848;53.884;11.446;2023-03-01T07:15:39;102753.00;;;1.85
28905;BMP280;60848;53.884;11.446;2023-03-01T07:18:08;102744.34;;;1.96
28905;BMP280;60848;53.884;11.446;2023-03-01T07:20:36;102742.66;;;2.07
28905;BMP280;60848;53.884;11.446;2023-03-01T07:23:05;102745.06;;;2.23
28905;BMP280;60848;53.884;11.446;2023-03-01T07:25:34;102743.91;;;2.41
28905;BMP280;60848;53.884;11.446;2023-03-01T07:28:02;102739.34;;;2.58
28905;BMP280;60848;53.884;11.446;2023-03-01T07:30:30;102743.84;;;2.78
28905;BMP280;60848;53.884;11.446;2023-03-01T07:33:00;102748.78;;;2.94
28905;BMP280;60848;53.884;11.446;2023-03-01T07:35:29;102740.91;;;3.16
28905;BMP280;60848;53.884;11.446;2023-03-01T07:37:57;102745.06;;;3.37
28905;BMP280;60848;53.884;11.446;2023-03-01T07:40:25;102750.78;;;3.59
28905;BMP280;60848;53.884;11.446;2023-03-01T07:42:55;102750.53;;;3.86
28905;BMP280;60848;53.884;11.446;2023-03-01T07:45:24;102747.16;;;4.15
28905;BMP280;60848;53.884;11.446;2023-03-01T07:47:53;102747.84;;;4.46
28905;BMP280;60848;53.884;11.446;2023-03-01T07:50:23;102753.97;;;4.75
28905;BMP280;60848;53.884;11.446;2023-03-01T07:52:52;102748.09;;;5.08
28905;BMP280;60848;53.884;11.446;2023-03-01T07:55:20;102746.59;;;5.41
28905;BMP280;60848;53.884;11.446;2023-03-01T07:57:49;102753.84;;;5.72
28905;BMP280;60848;53.884;11.446;2023-03-01T08:00:17;102759.56;;;6.03
28905;BMP280;60848;53.884;11.446;2023-03-01T08:02:46;102756.41;;;6.30
28905;BMP280;60848;53.884;11.446;2023-03-01T08:05:15;102762.66;;;6.52
28905;BMP280;60848;53.884;11.446;2023-03-01T08:07:44;102765.50;;;6.74
28905;BMP280;60848;53.884;11.446;2023-03-01T08:10:13;102761.28;;;6.97
28905;BMP280;60848;53.884;11.446;2023-03-01T08:12:41;102768.25;;;7.20
28905;BMP280;60848;53.884;11.446;2023-03-01T08:15:10;102764.81;;;7.38
28905;BMP280;60848;53.884;11.446;2023-03-01T08:17:38;102758.81;;;7.56
28905;BMP280;60848;53.884;11.446;2023-03-01T08:20:08;102752.50;;;7.76
28905;BMP280;60848;53.884;11.446;2023-03-01T08:22:39;102755.78;;;7.95
28905;BMP280;60848;53.884;11.446;2023-03-01T08:25:09;102752.47;;;8.17
28905;BMP280;60848;53.884;11.446;2023-03-01T08:27:37;102754.19;;;8.35
28905;BMP280;60848;53.884;11.446;2023-03-01T08:30:07;102751.38;;;8.58
28905;BMP280;60848;53.884;11.446;2023-03-01T08:32:37;102759.41;;;8.84
28905;BMP280;60848;53.884;11.446;2023-03-01T08:35:06;102751.50;;;9.11
28905;BMP280;60848;53.884;11.446;2023-03-01T08:37:34;102756.09;;;9.36
28905;BMP280;60848;53.884;11.446;2023-03-01T08:40:03;102751.09;;;9.57
28905;BMP280;60848;53.884;11.446;2023-03-01T08:42:38;102748.91;;;9.81
28905;BMP280;60848;53.884;11.446;2023-03-01T08:45:07;102745.91;;;9.96
28905;BMP280;60848;53.884;11.446;2023-03-01T08:47:36;102759.47;;;10.15
28905;BMP280;60848;53.884;11.446;2023-03-01T08:50:05;102761.06;;;10.33
28905;BMP280;60848;53.884;11.446;2023-03-01T08:52:33;102760.59;;;10.48
28905;BMP280;60848;53.884;11.446;2023-03-01T08:55:01;102760.44;;;10.61
28905;BMP280;60848;53.884;11.446;2023-03-01T08:57:30;102769.66;;;10.67
28905;BMP280;60848;53.884;11.446;2023-03-01T08:59:59;102768.75;;;10.63
28905;BMP280;60848;53.884;11.446;2023-03-01T09:02:28;102766.91;;;10.64
28905;BMP280;60848;53.884;11.446;2023-03-01T09:04:56;102760.75;;;10.68
28905;BMP280;60848;53.884;11.446;2023-03-01T09:07:25;102770.72;;;10.84
28905;BMP280;60848;53.884;11.446;2023-03-01T09:09:55;102775.81;;;10.97
28905;BMP280;60848;53.884;11.446;2023-03-01T09:12:23;102769.00;;;11.05
28905;BMP280;60848;53.884;11.446;2023-03-01T09:14:52;102774.56;;;11.12
28905;BMP280;60848;53.884;11.446;2023-03-01T09:17:22;102770.09;;;11.12
28905;BMP280;60848;53.884;11.446;2023-03-01T09:19:50;102773.31;;;11.18
28905;BMP280;60848;53.884;11.446;2023-03-01T09:22:18;102763.91;;;11.17
28905;BMP280;60848;53.884;11.446;2023-03-01T09:24:47;102760.81;;;11.23
28905;BMP280;60848;53.884;11.446;2023-03-01T09:27:15;102764.47;;;11.31
28905;BMP280;60848;53.884;11.446;2023-03-01T09:29:45;102765.25;;;11.40
28905;BMP280;60848;53.884;11.446;2023-03-01T09:32:14;102762.69;;;11.60
28905;BMP280;60848;53.884;11.446;2023-03-01T09:34:43;102765.94;;;11.86
28905;BMP280;60848;53.884;11.446;2023-03-01T09:37:26;102755.88;;;12.17
28905;BMP280;60848;53.884;11.446;2023-03-01T09:39:54;102756.38;;;12.52
28905;BMP280;60848;53.884;11.446;2023-03-01T09:42:23;102755.66;;;12.76
28905;BMP280;60848;53.884;11.446;2023-03-01T09:44:52;102744.88;;;12.89
28905;BMP280;60848;53.884;11.446;2023-03-01T09:47:26;102754.88;;;13.08
28905;BMP280;60848;53.884;11.446;2023-03-01T09:50:02;102749.50;;;13.16
28905;BMP280;60848;53.884;11.446;2023-03-01T09:52:36;102753.78;;;13.21
28905;BMP280;60848;53.884;11.446;2023-03-01T09:55:09;102755.47;;;13.25
28905;BMP280;60848;53.884;11.446;2023-03-01T09:57:43;102740.22;;;13.31
28905;BMP280;60848;53.884;11.446;2023-03-01T10:00:26;102748.03;;;13.39
28905;BMP280;60848;53.884;11.446;2023-03-01T10:02:59;102754.69;;;13.37
28905;BMP280;60848;53.884;11.446;2023-03-01T10:05:35;102758.19;;;13.41
28905;BMP280;60848;53.884;11.446;2023-03-01T10:08:19;102756.69;;;13.52
28905;BMP280;60848;53.884;11.446;2023-03-01T10:10:52;102757.75;;;13.63
28905;BMP280;60848;53.884;11.446;2023-03-01T10:13:23;102762.56;;;13.61
28905;BMP280;60848;53.884;11.446;2023-03-01T10:15:55;102758.94;;;13.53
28905;BMP280;60848;53.884;11.446;2023-03-01T10:18:26;102767.50;;;13.38
28905;BMP280;60848;53.884;11.446;2023-03-01T10:20:57;102761.03;;;13.36
28905;BMP280;60848;53.884;11.446;2023-03-01T10:23:27;102759.41;;;13.43
28905;BMP280;60848;53.884;11.446;2023-03-01T10:29:03;102764.88;;;13.74
28905;BMP280;60848;53.884;11.446;2023-03-01T10:31:39;102764.72;;;13.83
28905;BMP280;60848;53.884;11.446;2023-03-01T10:34:12;102763.19;;;13.94
28905;BMP280;60848;53.884;11.446;2023-03-01T10:36:48;102760.19;;;13.95
28905;BMP280;60848;53.884;11.446;2023-03-01T10:39:19;102766.38;;;13.87
28905;BMP280;60848;53.884;11.446;2023-03-01T10:41:56;102757.44;;;13.64
28905;BMP280;60848;53.884;11.446;2023-03-01T10:44:43;102756.09;;;13.34
28905;BMP280;60848;53.884;11.446;2023-03-01T10:47:17;102750.63;;;13.15
28905;BMP280;60848;53.884;11.446;2023-03-01T10:49:58;102754.13;;;13.07
28905;BMP280;60848;53.884;11.446;2023-03-01T10:52:31;102758.94;;;13.05
28905;BMP280;60848;53.884;11.446;2023-03-01T10:55:02;102755.44;;;13.01
28905;BMP280;60848;53.884;11.446;2023-03-01T10:57:34;102752.97;;;12.96
28905;BMP280;60848;53.884;11.446;2023-03-01T11:00:25;102756.72;;;12.95
28905;BMP280;60848;53.884;11.446;2023-03-01T11:03:11;102764.03;;;12.90
28905;BMP280;60848;53.884;11.446;2023-03-01T11:05:58;102752.19;;;12.84
28905;BMP280;60848;53.884;11.446;2023-03-01T11:08:33;102757.13;;;12.73
28905;BMP280;60848;53.884;11.446;2023-03-01T11:11:12;102759.81;;;12.65
28905;BMP280;60848;53.884;11.446;2023-03-01T11:13:56;102753.09;;;12.55
28905;BMP280;60848;53.884;11.446;2023-03-01T11:16:31;102742.22;;;12.45
28905;BMP280;60848;53.884;11.446;2023-03-01T11:19:13;102745.75;;;12.28
28905;BMP280;60848;53.884;11.446;2023-03-01T11:21:43;102751.75;;;12.08
28905;BMP280;60848;53.884;11.446;2023-03-01T11:24:15;102753.44;;;11.92
28905;BMP280;60848;53.884;11.446;2023-03-01T11:26:45;102757.00;;;11.79
28905;BMP280;60848;53.884;11.446;2023-03-01T11:29:17;102748.00;;;11.68
28905;BMP280;60848;53.884;11.446;2023-03-01T11:31:49;102751.91;;;11.53
28905;BMP280;60848;53.884;11.446;2023-03-01T11:34:28;102747.38;;;11.42
28905;BMP280;60848;53.884;11.446;2023-03-01T11:37:01;102746.16;;;11.31
28905;BMP280;60848;53.884;11.446;2023-03-01T11:39:33;102740.47;;;11.20
28905;BMP280;60848;53.884;11.446;2023-03-01T11:42:09;102735.72;;;11.14
28905;BMP280;60848;53.884;11.446;2023-03-01T11:44:46;102746.38;;;11.09
28905;BMP280;60848;53.884;11.446;2023-03-01T11:47:24;102745.44;;;11.05
28905;BMP280;60848;53.884;11.446;2023-03-01T11:50:07;102741.91;;;11.09
28905;BMP280;60848;53.884;11.446;2023-03-01T11:52:45;102740.81;;;11.10
28905;BMP280;60848;53.884;11.446;2023-03-01T11:55:29;102740.84;;;11.02
28905;BMP280;60848;53.884;11.446;2023-03-01T11:58:14;102744.25;;;10.94
28905;BMP280;60848;53.884;11.446;2023-03-01T12:01:01;102737.94;;;10.86
28905;BMP280;60848;53.884;11.446;2023-03-01T12:03:42;102736.72;;;10.75
28905;BMP280;60848;53.884;11.446;2023-03-01T12:06:41;102746.09;;;10.67
28905;BMP280;60848;53.884;11.446;2023-03-01T12:09:18;102743.97;;;10.61
28905;BMP280;60848;53.884;11.446;2023-03-01T12:11:58;102735.81;;;10.54
28905;BMP280;60848;53.884;11.446;2023-03-01T12:14:47;102736.00;;;10.49
28905;BMP280;60848;53.884;11.446;2023-03-01T12:17:30;102734.75;;;10.46
28905;BMP280;60848;53.884;11.446;2023-03-01T12:20:07;102727.03;;;10.41
28905;BMP280;60848;53.884;11.446;2023-03-01T12:22:48;102725.63;;;10.35
28905;BMP280;60848;53.884;11.446;2023-03-01T12:25:28;102724.72;;;10.31
28905;BMP280;60848;53.884;11.446;2023-03-01T12:28:11;102719.03;;;10.29
28905;BMP280;60848;53.884;11.446;2023-03-01T12:30:53;102721.47;;;10.26
28905;BMP280;60848;53.884;11.446;2023-03-01T12:33:29;102727.63;;;10.21
28905;BMP280;60848;53.884;11.446;2023-03-01T12:36:17;102725.47;;;10.15
28905;BMP280;60848;53.884;11.446;2023-03-01T12:38:50;102724.53;;;10.02
28905;BMP280;60848;53.884;11.446;2023-03-01T12:41:42;102729.59;;;9.90
28905;BMP280;60848;53.884;11.446;2023-03-01T12:44:21;102723.41;;;9.78
28905;BMP280;60848;53.884;11.446;2023-03-01T12:46:59;102713.81;;;9.65
28905;BMP280;60848;53.884;11.446;2023-03-01T12:49:33;102722.06;;;9.50
28905;BMP280;60848;53.884;11.446;2023-03-01T12:52:11;102718.31;;;9.33
28905;BMP280;60848;53.884;11.446;2023-03-01T12:54:40;102721.78;;;9.20
28905;BMP280;60848;53.884;11.446;2023-03-01T12:57:12;102716.31;;;9.08
28905;BMP280;60848;53.884;11.446;2023-03-01T13:00:00;102711.63;;;8.97
28905;BMP280;60848;53.884;11.446;2023-03-01T13:02:36;102708.38;;;8.91
28905;BMP280;60848;53.884;11.446;2023-03-01T13:05:23;102706.34;;;8.88
28905;BMP280;60848;53.884;11.446;2023-03-01T13:07:55;102701.22;;;8.83
28905;BMP280;60848;53.884;11.446;2023-03-01T13:10:28;102696.16;;;8.78
28905;BMP280;60848;53.884;11.446;2023-03-01T13:13:13;102700.81;;;8.68
28905;BMP280;60848;53.884;11.446;2023-03-01T13:15:43;102694.97;;;8.62
28905;BMP280;60848;53.884;11.446;2023-03-01T13:18:33;102694.19;;;8.62
28905;BMP280;60848;53.884;11.446;2023-03-01T13:21:02;102687.44;;;8.61
28905;BMP280;60848;53.884;11.446;2023-03-01T13:23:34;102688.97;;;8.62
28905;BMP280;60848;53.884;11.446;2023-03-01T13:26:08;102693.41;;;8.61
28905;BMP280;60848;53.884;11.446;2023-03-01T13:31:59;102681.59;;;8.64
28905;BMP280;60848;53.884;11.446;2023-03-01T13:34:48;102677.16;;;8.64
28905;BMP280;60848;53.884;11.446;2023-03-01T13:37:27;102679.00;;;8.64
28905;BMP280;60848;53.884;11.446;2023-03-01T13:39:58;102673.16;;;8.58
28905;BMP280;60848;53.884;11.446;2023-03-01T13:42:38;102673.44;;;8.57
28905;BMP280;60848;53.884;11.446;2023-03-01T13:45:24;102675.88;;;8.53
28905;BMP280;60848;53.884;11.446;2023-03-01T13:47:57;102671.72;;;8.52
28905;BMP280;60848;53.884;11.446;2023-03-01T13:50:28;102668.34;;;8.52
28905;BMP280;60848;53.884;11.446;2023-03-01T13:52:59;102667.56;;;8.51
28905;BMP280;60848;53.884;11.446;2023-03-01T13:55:37;102662.94;;;8.48
28905;BMP280;60848;53.884;11.446;2023-03-01T13:58:19;102664.78;;;8.48
28905;BMP280;60848;53.884;11.446;2023-03-01T14:00:55;102664.28;;;8.46
28905;BMP280;60848;53.884;11.446;2023-03-01T14:03:27;102659.06;;;8.46
28905;BMP280;60848;53.884;11.446;2023-03-01T14:06:04;102658.28;;;8.45
28905;BMP280;60848;53.884;11.446;2023-03-01T14:08:42;102653.41;;;8.44
28905;BMP280;60848;53.884;11.446;2023-03-01T14:11:52;102661.22;;;8.44
28905;BMP280;60848;53.884;11.446;2023-03-01T14:14:34;102646.94;;;8.41
28905;BMP280;60848;53.884;11.446;2023-03-01T14:17:13;102654.88;;;8.36
28905;BMP280;60848;53.884;11.446;2023-03-01T14:19:45;102652.97;;;8.28
28905;BMP280;60848;53.884;11.446;2023-03-01T14:22:18;102649.38;;;8.24
28905;BMP280;60848;53.884;11.446;2023-03-01T14:24:49;102649.59;;;8.14
28905;BMP280;60848;53.884;11.446;2023-03-01T14:27:18;102653.19;;;8.04